sensor_id;sensor_type;location;lat;lon;timestamp;temperature;humidity
42973;DHT22;28610;51.214;6.962;2022-07-06T00:00:52;15.90;73.70
42973;DHT22;28610;51.214;6.962;2022-07-06T00:03:37;15.80;73.40
42973;DHT22;28610;51.214;6.962;2022-07-06T00:06:24;15.80;73.80
42973;DHT22;28610;51.214;6.962;2022-07-06T00:09:10;15.70;73.80
42973;DHT22;28610;51.214;6.962;2022-07-06T00:11:55;15.70;73.80
42973;DHT22;28610;51.214;6.962;2022-07-06T00:14:41;15.60;74.20
42973;DHT22;28610;51.214;6.962;2022-07-06T00:17:26;15.60;74.40
42973;DHT22;28610;51.214;6.962;2022-07-06T00:20:11;15.60;74.30
42973;DHT22;28610;51.214;6.962;2022-07-06T00:22:58;15.50;74.20
42973;DHT22;28610;51.214;6.962;2022-07-06T00:25:44;15.60;74.40
42973;DHT22;28610;51.214;6.962;2022-07-06T00:28:30;15.50;74.20
42973;DHT22;28610;51.214;6.962;2022-07-06T00:31:15;15.50;74.60
42973;DHT22;28610;51.214;6.962;2022-07-06T00:34:01;15.40;74.60
42973;DHT22;28610;51.214;6.962;2022-07-06T00:36:46;15.50;74.30
42973;DHT22;28610;51.214;6.962;2022-07-06T00:39:33;15.30;75.50
42973;DHT22;28610;51.214;6.962;2022-07-06T00:42:18;15.20;75.60
42973;DHT22;28610;51.214;6.962;2022-07-06T00:45:05;15.30;76.00
42973;DHT22;28610;51.214;6.962;2022-07-06T00:47:50;15.40;75.20
42973;DHT22;28610;51.214;6.962;2022-07-06T00:50:36;15.40;75.20
42973;DHT22;28610;51.214;6.962;2022-07-06T00:53:22;15.20;75.50
42973;DHT22;28610;51.214;6.962;2022-07-06T00:56:09;15.10;76.30
42973;DHT22;28610;51.214;6.962;2022-07-06T00:58:55;15.20;75.90
42973;DHT22;28610;51.214;6.962;2022-07-06T01:01:41;15.00;77.00
42973;DHT22;28610;51.214;6.962;2022-07-06T01:04:26;14.80;77.60
42973;DHT22;28610;51.214;6.962;2022-07-06T01:07:12;14.80;77.90
42973;DHT22;28610;51.214;6.962;2022-07-06T01:09:57;15.00;77.70
42973;DHT22;28610;51.214;6.962;2022-07-06T01:12:45;15.00;77.20
42973;DHT22;28610;51.214;6.962;2022-07-06T01:15:31;15.00;77.20
42973;DHT22;28610;51.214;6.962;2022-07-06T01:18:16;15.00;77.50
42973;DHT22;28610;51.214;6.962;2022-07-06T01:21:11;14.90;77.10
42973;DHT22;28610;51.214;6.962;2022-07-06T01:23:56;14.80;77.70
42973;DHT22;28610;51.214;6.962;2022-07-06T01:26:42;14.60;79.00
42973;DHT22;28610;51.214;6.962;2022-07-06T01:29:28;14.50;78.90
42973;DHT22;28610;51.214;6.962;2022-07-06T01:32:13;14.60;79.20
42973;DHT22;28610;51.214;6.962;2022-07-06T01:34:59;14.70;78.30
42973;DHT22;28610;51.214;6.962;2022-07-06T01:37:46;14.60;78.80
42973;DHT22;28610;51.214;6.962;2022-07-06T01:40:31;14.40;79.70
42973;DHT22;28610;51.214;6.962;2022-07-06T01:43:17;14.50;79.70
42973;DHT22;28610;51.214;6.962;2022-07-06T01:46:02;14.60;79.00
42973;DHT22;28610;51.214;6.962;2022-07-06T01:48:48;14.50;79.20
42973;DHT22;28610;51.214;6.962;2022-07-06T01:51:33;14.40;79.70
42973;DHT22;28610;51.214;6.962;2022-07-06T01:54:20;14.40;79.60
42973;DHT22;28610;51.214;6.962;2022-07-06T01:57:06;14.10;80.70
42973;DHT22;28610;51.214;6.962;2022-07-06T01:59:51;14.00;81.20
42973;DHT22;28610;51.214;6.962;2022-07-06T02:02:36;14.30;81.00
42973;DHT22;28610;51.214;6.962;2022-07-06T02:05:22;14.30;80.40
42973;DHT22;28610;51.214;6.962;2022-07-06T02:08:07;14.30;80.20
42973;DHT22;28610;51.214;6.962;2022-07-06T02:10:54;14.20;80.50
42973;DHT22;28610;51.214;6.962;2022-07-06T02:13:39;14.30;82.00
42973;DHT22;28610;51.214;6.962;2022-07-06T02:16:25;14.30;80.70
42973;DHT22;28610;51.214;6.962;2022-07-06T02:19:11;14.30;80.20
42973;DHT22;28610;51.214;6.962;2022-07-06T02:21:56;14.30;80.50
42973;DHT22;28610;51.214;6.962;2022-07-06T02:24:41;14.20;80.80
42973;DHT22;28610;51.214;6.962;2022-07-06T02:27:28;14.10;81.20
42973;DHT22;28610;51.214;6.962;2022-07-06T02:30:14;14.30;80.50
42973;DHT22;28610;51.214;6.962;2022-07-06T02:32:59;14.50;79.70
42973;DHT22;28610;51.214;6.962;2022-07-06T02:35:45;14.50;79.60
42973;DHT22;28610;51.214;6.962;2022-07-06T02:38:30;14.40;80.50
42973;DHT22;28610;51.214;6.962;2022-07-06T02:41:16;14.50;80.10
42973;DHT22;28610;51.214;6.962;2022-07-06T02:44:03;14.70;79.60
42973;DHT22;28610;51.214;6.962;2022-07-06T02:46:48;14.60;80.30
42973;DHT22;28610;51.214;6.962;2022-07-06T02:49:34;14.60;80.10
42973;DHT22;28610;51.214;6.962;2022-07-06T02:52:19;14.50;80.30
42973;DHT22;28610;51.214;6.962;2022-07-06T02:55:05;14.60;80.10
42973;DHT22;28610;51.214;6.962;2022-07-06T02:57:51;14.50;80.30
42973;DHT22;28610;51.214;6.962;2022-07-06T03:00:38;14.50;80.50
42973;DHT22;28610;51.214;6.962;2022-07-06T03:03:23;14.40;80.60
42973;DHT22;28610;51.214;6.962;2022-07-06T03:06:09;14.60;79.80
42973;DHT22;28610;51.214;6.962;2022-07-06T03:08:54;14.40;80.30
42973;DHT22;28610;51.214;6.962;2022-07-06T03:11:40;14.20;81.50
42973;DHT22;28610;51.214;6.962;2022-07-06T03:14:26;14.20;81.70
42973;DHT22;28610;51.214;6.962;2022-07-06T03:17:12;14.20;82.30
42973;DHT22;28610;51.214;6.962;2022-07-06T03:19:58;14.10;82.30
42973;DHT22;28610;51.214;6.962;2022-07-06T03:22:44;14.10;82.30
42973;DHT22;28610;51.214;6.962;2022-07-06T03:25:29;14.10;82.70
42973;DHT22;28610;51.214;6.962;2022-07-06T03:28:14;14.00;82.90
42973;DHT22;28610;51.214;6.962;2022-07-06T03:31:00;14.10;83.10
42973;DHT22;28610;51.214;6.962;2022-07-06T03:33:47;14.00;83.00
42973;DHT22;28610;51.214;6.962;2022-07-06T03:36:32;13.90;83.20
42973;DHT22;28610;51.214;6.962;2022-07-06T03:39:18;14.10;83.70
42973;DHT22;28610;51.214;6.962;2022-07-06T03:42:03;14.10;83.70
42973;DHT22;28610;51.214;6.962;2022-07-06T03:44:49;14.30;82.90
42973;DHT22;28610;51.214;6.962;2022-07-06T03:47:34;14.40;82.40
42973;DHT22;28610;51.214;6.962;2022-07-06T03:50:21;14.40;82.10
42973;DHT22;28610;51.214;6.962;2022-07-06T03:53:06;14.40;82.40
42973;DHT22;28610;51.214;6.962;2022-07-06T03:55:52;14.40;82.50
42973;DHT22;28610;51.214;6.962;2022-07-06T03:58:51;14.40;82.60
42973;DHT22;28610;51.214;6.962;2022-07-06T04:01:36;14.30;82.80
42973;DHT22;28610;51.214;6.962;2022-07-06T04:04:22;14.30;83.00
42973;DHT22;28610;51.214;6.962;2022-07-06T04:07:09;14.20;83.30
42973;DHT22;28610;51.214;6.962;2022-07-06T04:09:54;14.30;83.60
42973;DHT22;28610;51.214;6.962;2022-07-06T04:12:40;14.40;83.10
42973;DHT22;28610;51.214;6.962;2022-07-06T04:15:25;14.20;83.30
42973;DHT22;28610;51.214;6.962;2022-07-06T04:18:11;14.20;84.10
42973;DHT22;28610;51.214;6.962;2022-07-06T04:20:56;14.40;83.50
42973;DHT22;28610;51.214;6.962;2022-07-06T04:23:43;14.30;83.60
42973;DHT22;28610;51.214;6.962;2022-07-06T04:26:29;14.40;83.60
42973;DHT22;28610;51.214;6.962;2022-07-06T04:29:14;14.40;83.60
42973;DHT22;28610;51.214;6.962;2022-07-06T04:32:00;14.30;84.20
42973;DHT22;28610;51.214;6.962;2022-07-06T04:34:45;14.30;84.60
42973;DHT22;28610;51.214;6.962;2022-07-06T04:37:31;14.40;83.60
42973;DHT22;28610;51.214;6.962;2022-07-06T04:40:17;14.50;83.60
42973;DHT22;28610;51.214;6.962;2022-07-06T04:43:03;14.60;83.40
42973;DHT22;28610;51.214;6.962;2022-07-06T04:45:48;14.60;83.20
42973;DHT22;28610;51.214;6.962;2022-07-06T04:48:33;14.80;82.60
42973;DHT22;28610;51.214;6.962;2022-07-06T04:51:23;14.70;82.50
42973;DHT22;28610;51.214;6.962;2022-07-06T04:54:08;14.60;83.40
42973;DHT22;28610;51.214;6.962;2022-07-06T04:56:55;14.70;82.80
42973;DHT22;28610;51.214;6.962;2022-07-06T04:59:41;14.90;82.60
42973;DHT22;28610;51.214;6.962;2022-07-06T05:02:26;14.90;82.30
42973;DHT22;28610;51.214;6.962;2022-07-06T05:05:11;14.90;82.90
42973;DHT22;28610;51.214;6.962;2022-07-06T05:07:57;15.00;82.30
42973;DHT22;28610;51.214;6.962;2022-07-06T05:10:42;15.20;81.80
42973;DHT22;28610;51.214;6.962;2022-07-06T05:13:29;15.30;80.70
42973;DHT22;28610;51.214;6.962;2022-07-06T05:16:15;15.30;80.00
42973;DHT22;28610;51.214;6.962;2022-07-06T05:19:00;15.10;81.30
42973;DHT22;28610;51.214;6.962;2022-07-06T05:21:46;15.40;79.60
42973;DHT22;28610;51.214;6.962;2022-07-06T05:24:31;15.50;79.30
42973;DHT22;28610;51.214;6.962;2022-07-06T05:27:17;15.60;79.50
42973;DHT22;28610;51.214;6.962;2022-07-06T05:30:05;15.70;79.40
42973;DHT22;28610;51.214;6.962;2022-07-06T05:32:50;15.50;79.60
42973;DHT22;28610;51.214;6.962;2022-07-06T05:35:36;15.80;80.10
42973;DHT22;28610;51.214;6.962;2022-07-06T05:38:21;17.40;76.00
42973;DHT22;28610;51.214;6.962;2022-07-06T05:41:07;18.30;71.30
42973;DHT22;28610;51.214;6.962;2022-07-06T05:43:52;19.20;65.90
42973;DHT22;28610;51.214;6.962;2022-07-06T05:46:39;19.70;62.50
42973;DHT22;28610;51.214;6.962;2022-07-06T05:49:25;19.10;60.60
42973;DHT22;28610;51.214;6.962;2022-07-06T05:52:28;18.90;61.60
42973;DHT22;28610;51.214;6.962;2022-07-06T05:55:13;18.70;63.30
42973;DHT22;28610;51.214;6.962;2022-07-06T05:57:59;19.00;61.80
42973;DHT22;28610;51.214;6.962;2022-07-06T06:00:44;19.90;58.20
42973;DHT22;28610;51.214;6.962;2022-07-06T06:03:31;20.40;56.70
42973;DHT22;28610;51.214;6.962;2022-07-06T06:06:16;21.10;52.30
42973;DHT22;28610;51.214;6.962;2022-07-06T06:09:02;21.80;48.30
42973;DHT22;28610;51.214;6.962;2022-07-06T06:11:47;22.00;46.30
42973;DHT22;28610;51.214;6.962;2022-07-06T06:14:32;21.10;48.90
42973;DHT22;28610;51.214;6.962;2022-07-06T06:17:18;20.20;50.60
42973;DHT22;28610;51.214;6.962;2022-07-06T06:20:07;19.90;53.10
42973;DHT22;28610;51.214;6.962;2022-07-06T06:22:55;19.40;55.90
42973;DHT22;28610;51.214;6.962;2022-07-06T06:25:40;19.20;58.70
42973;DHT22;28610;51.214;6.962;2022-07-06T06:28:25;19.00;56.50
42973;DHT22;28610;51.214;6.962;2022-07-06T06:31:11;19.00;57.80
42973;DHT22;28610;51.214;6.962;2022-07-06T06:33:57;19.20;56.30
42973;DHT22;28610;51.214;6.962;2022-07-06T06:36:44;18.90;58.30
42973;DHT22;28610;51.214;6.962;2022-07-06T06:39:29;18.90;58.40
42973;DHT22;28610;51.214;6.962;2022-07-06T06:42:15;19.20;57.60
42973;DHT22;28610;51.214;6.962;2022-07-06T06:45:00;18.60;58.10
42973;DHT22;28610;51.214;6.962;2022-07-06T06:47:46;18.40;59.60
42973;DHT22;28610;51.214;6.962;2022-07-06T06:50:31;18.30;61.90
42973;DHT22;28610;51.214;6.962;2022-07-06T06:53:18;18.40;61.90
42973;DHT22;28610;51.214;6.962;2022-07-06T06:56:04;18.10;63.80
42973;DHT22;28610;51.214;6.962;2022-07-06T06:58:49;18.10;63.10
42973;DHT22;28610;51.214;6.962;2022-07-06T07:01:35;17.70;65.80
42973;DHT22;28610;51.214;6.962;2022-07-06T07:04:20;18.40;65.60
42973;DHT22;28610;51.214;6.962;2022-07-06T07:07:06;19.70;57.00
42973;DHT22;28610;51.214;6.962;2022-07-06T07:09:52;20.20;52.10
42973;DHT22;28610;51.214;6.962;2022-07-06T07:12:43;20.00;53.20
42973;DHT22;28610;51.214;6.962;2022-07-06T07:15:28;19.70;53.70
42973;DHT22;28610;51.214;6.962;2022-07-06T07:18:14;19.30;56.00
42973;DHT22;28610;51.214;6.962;2022-07-06T07:20:59;19.00;57.30
42973;DHT22;28610;51.214;6.962;2022-07-06T07:23:45;18.80;58.90
42973;DHT22;28610;51.214;6.962;2022-07-06T07:26:31;19.10;58.40
42973;DHT22;28610;51.214;6.962;2022-07-06T07:29:17;19.00;57.40
42973;DHT22;28610;51.214;6.962;2022-07-06T07:32:03;19.50;56.20
42973;DHT22;28610;51.214;6.962;2022-07-06T07:34:48;19.40;55.80
42973;DHT22;28610;51.214;6.962;2022-07-06T07:37:34;19.50;52.70
42973;DHT22;28610;51.214;6.962;2022-07-06T07:40:19;19.40;52.70
42973;DHT22;28610;51.214;6.962;2022-07-06T07:43:07;19.40;53.10
42973;DHT22;28610;51.214;6.962;2022-07-06T07:45:53;19.50;53.50
42973;DHT22;28610;51.214;6.962;2022-07-06T07:48:39;19.80;51.90
42973;DHT22;28610;51.214;6.962;2022-07-06T07:51:24;20.90;48.20
42973;DHT22;28610;51.214;6.962;2022-07-06T07:54:10;20.50;47.60
42973;DHT22;28610;51.214;6.962;2022-07-06T07:56:55;20.30;49.90
42973;DHT22;28610;51.214;6.962;2022-07-06T07:59:42;20.00;49.20
42973;DHT22;28610;51.214;6.962;2022-07-06T08:02:28;19.90;50.10
42973;DHT22;28610;51.214;6.962;2022-07-06T08:05:13;19.50;50.10
42973;DHT22;28610;51.214;6.962;2022-07-06T08:07:59;19.70;51.30
42973;DHT22;28610;51.214;6.962;2022-07-06T08:10:45;19.90;49.60
42973;DHT22;28610;51.214;6.962;2022-07-06T08:13:30;19.50;48.90
42973;DHT22;28610;51.214;6.962;2022-07-06T08:16:17;19.70;50.40
42973;DHT22;28610;51.214;6.962;2022-07-06T08:19:03;19.70;49.90
42973;DHT22;28610;51.214;6.962;2022-07-06T08:21:48;19.90;47.70
42973;DHT22;28610;51.214;6.962;2022-07-06T08:24:33;20.20;48.00
42973;DHT22;28610;51.214;6.962;2022-07-06T08:27:19;20.50;47.50
42973;DHT22;28610;51.214;6.962;2022-07-06T08:30:05;20.40;46.10
42973;DHT22;28610;51.214;6.962;2022-07-06T08:32:52;20.30;46.90
42973;DHT22;28610;51.214;6.962;2022-07-06T08:35:38;20.90;44.70
42973;DHT22;28610;51.214;6.962;2022-07-06T08:38:23;21.30;43.90
42973;DHT22;28610;51.214;6.962;2022-07-06T08:41:10;21.20;41.60
42973;DHT22;28610;51.214;6.962;2022-07-06T08:43:55;21.60;41.50
42973;DHT22;28610;51.214;6.962;2022-07-06T08:46:41;21.40;42.40
42973;DHT22;28610;51.214;6.962;2022-07-06T08:49:28;21.30;43.00
42973;DHT22;28610;51.214;6.962;2022-07-06T08:52:15;21.10;42.40
42973;DHT22;28610;51.214;6.962;2022-07-06T08:55:01;21.40;42.10
42973;DHT22;28610;51.214;6.962;2022-07-06T08:57:47;21.70;40.00
42973;DHT22;28610;51.214;6.962;2022-07-06T09:00:32;21.80;40.00
42973;DHT22;28610;51.214;6.962;2022-07-06T09:03:19;22.20;41.20
42973;DHT22;28610;51.214;6.962;2022-07-06T09:06:07;21.90;38.30
42973;DHT22;28610;51.214;6.962;2022-07-06T09:08:54;22.30;39.00
42973;DHT22;28610;51.214;6.962;2022-07-06T09:11:39;24.70;32.60
42973;DHT22;28610;51.214;6.962;2022-07-06T09:14:25;25.70;28.40
42973;DHT22;28610;51.214;6.962;2022-07-06T09:17:12;27.10;27.40
42973;DHT22;28610;51.214;6.962;2022-07-06T09:19:57;27.30;26.90
42973;DHT22;28610;51.214;6.962;2022-07-06T09:22:44;27.00;25.90
42973;DHT22;28610;51.214;6.962;2022-07-06T09:25:30;27.40;26.30
42973;DHT22;28610;51.214;6.962;2022-07-06T09:28:15;27.00;26.10
42973;DHT22;28610;51.214;6.962;2022-07-06T09:31:06;27.20;25.80
42973;DHT22;28610;51.214;6.962;2022-07-06T09:33:57;26.80;25.40
42973;DHT22;28610;51.214;6.962;2022-07-06T09:36:45;27.70;23.80
42973;DHT22;28610;51.214;6.962;2022-07-06T09:39:32;27.20;23.80
42973;DHT22;28610;51.214;6.962;2022-07-06T09:42:24;25.50;25.70
42973;DHT22;28610;51.214;6.962;2022-07-06T09:45:11;25.30;25.70
42973;DHT22;28610;51.214;6.962;2022-07-06T09:47:56;25.80;25.30
42973;DHT22;28610;51.214;6.962;2022-07-06T09:50:42;25.90;25.00
42973;DHT22;28610;51.214;6.962;2022-07-06T09:53:29;25.60;26.10
42973;DHT22;28610;51.214;6.962;2022-07-06T09:56:18;25.30;27.20
42973;DHT22;28610;51.214;6.962;2022-07-06T09:59:07;23.70;29.20
42973;DHT22;28610;51.214;6.962;2022-07-06T10:01:55;23.10;32.10
42973;DHT22;28610;51.214;6.962;2022-07-06T10:04:40;22.20;33.90
42973;DHT22;28610;51.214;6.962;2022-07-06T10:07:28;22.30;34.80
42973;DHT22;28610;51.214;6.962;2022-07-06T10:10:15;22.20;35.80
42973;DHT22;28610;51.214;6.962;2022-07-06T10:13:02;22.50;34.80
42973;DHT22;28610;51.214;6.962;2022-07-06T10:15:50;23.70;29.50
42973;DHT22;28610;51.214;6.962;2022-07-06T10:18:36;25.90;26.40
42973;DHT22;28610;51.214;6.962;2022-07-06T10:21:22;27.10;25.90
42973;DHT22;28610;51.214;6.962;2022-07-06T10:24:08;27.70;24.50
42973;DHT22;28610;51.214;6.962;2022-07-06T10:26:54;28.20;23.90
42973;DHT22;28610;51.214;6.962;2022-07-06T10:29:41;25.60;26.10
42973;DHT22;28610;51.214;6.962;2022-07-06T10:32:26;23.80;29.50
42973;DHT22;28610;51.214;6.962;2022-07-06T10:35:12;23.50;31.30
42973;DHT22;28610;51.214;6.962;2022-07-06T10:38:05;23.50;31.00
42973;DHT22;28610;51.214;6.962;2022-07-06T10:41:02;23.80;30.70
42973;DHT22;28610;51.214;6.962;2022-07-06T10:43:48;23.60;30.90
42973;DHT22;28610;51.214;6.962;2022-07-06T10:46:35;23.70;30.90
42973;DHT22;28610;51.214;6.962;2022-07-06T10:49:21;23.30;31.00
42973;DHT22;28610;51.214;6.962;2022-07-06T10:52:07;23.50;31.60
42973;DHT22;28610;51.214;6.962;2022-07-06T10:54:56;23.60;31.60
42973;DHT22;28610;51.214;6.962;2022-07-06T10:57:51;23.70;31.60
42973;DHT22;28610;51.214;6.962;2022-07-06T11:00:48;23.00;32.10
42973;DHT22;28610;51.214;6.962;2022-07-06T11:03:38;22.50;33.80
42973;DHT22;28610;51.214;6.962;2022-07-06T11:06:25;22.80;33.80
42973;DHT22;28610;51.214;6.962;2022-07-06T11:09:11;23.30;32.20
42973;DHT22;28610;51.214;6.962;2022-07-06T11:11:58;23.20;30.50
42973;DHT22;28610;51.214;6.962;2022-07-06T11:14:56;22.80;30.90
42973;DHT22;28610;51.214;6.962;2022-07-06T11:18:10;23.30;31.00
42973;DHT22;28610;51.214;6.962;2022-07-06T11:21:22;23.30;30.40
42973;DHT22;28610;51.214;6.962;2022-07-06T11:24:08;22.90;32.30
42973;DHT22;28610;51.214;6.962;2022-07-06T11:26:55;23.20;32.60
42973;DHT22;28610;51.214;6.962;2022-07-06T11:29:40;22.60;32.70
42973;DHT22;28610;51.214;6.962;2022-07-06T11:32:27;22.90;33.60
42973;DHT22;28610;51.214;6.962;2022-07-06T11:35:20;23.40;33.70
42973;DHT22;28610;51.214;6.962;2022-07-06T11:38:28;23.00;32.00
42973;DHT22;28610;51.214;6.962;2022-07-06T11:41:14;22.80;32.50
42973;DHT22;28610;51.214;6.962;2022-07-06T11:44:00;23.50;32.00
42973;DHT22;28610;51.214;6.962;2022-07-06T11:46:46;23.40;31.60
42973;DHT22;28610;51.214;6.962;2022-07-06T11:49:33;23.40;31.40
42973;DHT22;28610;51.214;6.962;2022-07-06T11:52:19;23.10;32.70
42973;DHT22;28610;51.214;6.962;2022-07-06T11:55:06;22.50;33.10
42973;DHT22;28610;51.214;6.962;2022-07-06T11:57:52;22.60;34.00
42973;DHT22;28610;51.214;6.962;2022-07-06T12:00:40;22.90;33.80
42973;DHT22;28610;51.214;6.962;2022-07-06T12:03:25;22.80;33.80
42973;DHT22;28610;51.214;6.962;2022-07-06T12:06:15;23.30;33.20
42973;DHT22;28610;51.214;6.962;2022-07-06T12:09:01;22.90;33.90
42973;DHT22;28610;51.214;6.962;2022-07-06T12:11:49;23.00;32.70
42973;DHT22;28610;51.214;6.962;2022-07-06T12:14:36;23.00;33.20
42973;DHT22;28610;51.214;6.962;2022-07-06T12:17:21;23.00;33.70
42973;DHT22;28610;51.214;6.962;2022-07-06T12:20:08;22.90;33.30
42973;DHT22;28610;51.214;6.962;2022-07-06T12:23:01;22.70;34.00
42973;DHT22;28610;51.214;6.962;2022-07-06T12:25:46;22.40;34.60
42973;DHT22;28610;51.214;6.962;2022-07-06T12:28:40;22.80;33.60
42973;DHT22;28610;51.214;6.962;2022-07-06T12:31:33;22.50;34.20
42973;DHT22;28610;51.214;6.962;2022-07-06T12:34:21;22.30;33.70
42973;DHT22;28610;51.214;6.962;2022-07-06T12:37:09;22.40;34.80
42973;DHT22;28610;51.214;6.962;2022-07-06T12:39:55;22.60;34.30
42973;DHT22;28610;51.214;6.962;2022-07-06T12:42:45;23.00;32.80
42973;DHT22;28610;51.214;6.962;2022-07-06T12:45:33;23.10;33.50
42973;DHT22;28610;51.214;6.962;2022-07-06T12:48:18;23.50;32.40
42973;DHT22;28610;51.214;6.962;2022-07-06T12:51:04;23.50;32.80
42973;DHT22;28610;51.214;6.962;2022-07-06T12:53:49;23.40;33.40
42973;DHT22;28610;51.214;6.962;2022-07-06T12:56:35;23.70;34.80
42973;DHT22;28610;51.214;6.962;2022-07-06T12:59:21;23.40;34.00
42973;DHT22;28610;51.214;6.962;2022-07-06T13:02:09;23.40;32.90
42973;DHT22;28610;51.214;6.962;2022-07-06T13:05:03;22.90;33.80
42973;DHT22;28610;51.214;6.962;2022-07-06T13:07:49;23.10;34.20
42973;DHT22;28610;51.214;6.962;2022-07-06T13:10:35;22.90;33.70
42973;DHT22;28610;51.214;6.962;2022-07-06T13:13:20;22.70;34.40
42973;DHT22;28610;51.214;6.962;2022-07-06T13:16:07;23.10;34.40
42973;DHT22;28610;51.214;6.962;2022-07-06T13:18:53;22.90;33.90
42973;DHT22;28610;51.214;6.962;2022-07-06T13:21:39;22.80;35.30
42973;DHT22;28610;51.214;6.962;2022-07-06T13:24:25;22.70;35.70
42973;DHT22;28610;51.214;6.962;2022-07-06T13:27:12;22.80;35.00
42973;DHT22;28610;51.214;6.962;2022-07-06T13:29:57;23.10;35.30
42973;DHT22;28610;51.214;6.962;2022-07-06T13:32:43;23.10;34.00
42973;DHT22;28610;51.214;6.962;2022-07-06T13:35:29;23.20;33.90
42973;DHT22;28610;51.214;6.962;2022-07-06T13:38:15;23.20;32.70
42973;DHT22;28610;51.214;6.962;2022-07-06T13:41:00;23.40;33.20
42973;DHT22;28610;51.214;6.962;2022-07-06T13:43:46;23.80;33.20
42973;DHT22;28610;51.214;6.962;2022-07-06T13:46:31;23.20;32.50
42973;DHT22;28610;51.214;6.962;2022-07-06T13:49:17;23.20;33.90
42973;DHT22;28610;51.214;6.962;2022-07-06T13:52:05;23.00;34.80
42973;DHT22;28610;51.214;6.962;2022-07-06T13:54:51;22.90;34.20
42973;DHT22;28610;51.214;6.962;2022-07-06T13:57:36;22.90;35.40
42973;DHT22;28610;51.214;6.962;2022-07-06T14:00:22;22.70;36.40
42973;DHT22;28610;51.214;6.962;2022-07-06T14:03:07;22.50;36.40
42973;DHT22;28610;51.214;6.962;2022-07-06T14:05:53;22.80;36.00
42973;DHT22;28610;51.214;6.962;2022-07-06T14:08:41;22.80;34.30
42973;DHT22;28610;51.214;6.962;2022-07-06T14:11:26;22.80;34.50
42973;DHT22;28610;51.214;6.962;2022-07-06T14:14:12;22.80;34.80
42973;DHT22;28610;51.214;6.962;2022-07-06T14:16:57;23.10;34.00
42973;DHT22;28610;51.214;6.962;2022-07-06T14:19:43;22.90;34.40
42973;DHT22;28610;51.214;6.962;2022-07-06T14:22:28;22.50;33.90
42973;DHT22;28610;51.214;6.962;2022-07-06T14:25:15;23.10;34.80
42973;DHT22;28610;51.214;6.962;2022-07-06T14:28:00;23.40;33.40
42973;DHT22;28610;51.214;6.962;2022-07-06T14:30:47;23.40;33.90
42973;DHT22;28610;51.214;6.962;2022-07-06T14:33:32;23.00;34.00
42973;DHT22;28610;51.214;6.962;2022-07-06T14:36:18;22.70;34.20
42973;DHT22;28610;51.214;6.962;2022-07-06T14:39:03;22.70;34.80
42973;DHT22;28610;51.214;6.962;2022-07-06T14:41:50;23.00;34.90
42973;DHT22;28610;51.214;6.962;2022-07-06T14:44:35;22.70;34.60
42973;DHT22;28610;51.214;6.962;2022-07-06T14:47:21;22.40;34.70
42973;DHT22;28610;51.214;6.962;2022-07-06T14:50:07;22.50;35.00
42973;DHT22;28610;51.214;6.962;2022-07-06T14:52:53;22.60;34.80
42973;DHT22;28610;51.214;6.962;2022-07-06T14:55:38;22.50;35.40
42973;DHT22;28610;51.214;6.962;2022-07-06T14:58:25;22.30;36.00
42973;DHT22;28610;51.214;6.962;2022-07-06T15:01:11;22.60;36.00
42973;DHT22;28610;51.214;6.962;2022-07-06T15:03:56;22.70;35.00
42973;DHT22;28610;51.214;6.962;2022-07-06T15:06:41;22.80;35.60
42973;DHT22;28610;51.214;6.962;2022-07-06T15:09:27;22.50;36.30
42973;DHT22;28610;51.214;6.962;2022-07-06T15:12:14;22.70;35.70
42973;DHT22;28610;51.214;6.962;2022-07-06T15:15:00;22.30;36.20
42973;DHT22;28610;51.214;6.962;2022-07-06T15:17:46;22.40;36.30
42973;DHT22;28610;51.214;6.962;2022-07-06T15:20:32;22.50;36.20
42973;DHT22;28610;51.214;6.962;2022-07-06T15:23:18;22.70;35.40
42973;DHT22;28610;51.214;6.962;2022-07-06T15:26:03;22.50;35.00
42973;DHT22;28610;51.214;6.962;2022-07-06T15:28:49;22.70;36.10
42973;DHT22;28610;51.214;6.962;2022-07-06T15:31:36;22.70;35.30
42973;DHT22;28610;51.214;6.962;2022-07-06T15:34:21;22.90;35.00
42973;DHT22;28610;51.214;6.962;2022-07-06T15:37:06;23.00;35.30
42973;DHT22;28610;51.214;6.962;2022-07-06T15:39:52;23.20;34.80
42973;DHT22;28610;51.214;6.962;2022-07-06T15:42:38;23.20;34.30
42973;DHT22;28610;51.214;6.962;2022-07-06T15:45:23;23.20;34.00
42973;DHT22;28610;51.214;6.962;2022-07-06T15:48:11;23.40;34.40
42973;DHT22;28610;51.214;6.962;2022-07-06T15:50:57;23.50;33.70
42973;DHT22;28610;51.214;6.962;2022-07-06T15:53:43;23.40;34.80
42973;DHT22;28610;51.214;6.962;2022-07-06T15:56:29;23.20;34.70
42973;DHT22;28610;51.214;6.962;2022-07-06T15:59:14;23.10;34.60
42973;DHT22;28610;51.214;6.962;2022-07-06T16:02:00;23.00;34.70
42973;DHT22;28610;51.214;6.962;2022-07-06T16:04:47;23.30;35.20
42973;DHT22;28610;51.214;6.962;2022-07-06T16:07:32;23.30;36.20
42973;DHT22;28610;51.214;6.962;2022-07-06T16:10:18;23.40;35.00
42973;DHT22;28610;51.214;6.962;2022-07-06T16:13:03;23.20;35.30
42973;DHT22;28610;51.214;6.962;2022-07-06T16:15:49;23.00;35.10
42973;DHT22;28610;51.214;6.962;2022-07-06T16:18:34;22.90;35.70
42973;DHT22;28610;51.214;6.962;2022-07-06T16:21:21;22.70;35.60
42973;DHT22;28610;51.214;6.962;2022-07-06T16:24:07;22.60;35.90
42973;DHT22;28610;51.214;6.962;2022-07-06T16:26:52;22.70;35.80
42973;DHT22;28610;51.214;6.962;2022-07-06T16:29:38;22.90;34.60
42973;DHT22;28610;51.214;6.962;2022-07-06T16:32:23;22.80;35.40
42973;DHT22;28610;51.214;6.962;2022-07-06T16:35:09;22.80;35.30
42973;DHT22;28610;51.214;6.962;2022-07-06T16:37:56;23.00;36.00
42973;DHT22;28610;51.214;6.962;2022-07-06T16:40:41;23.00;35.40
42973;DHT22;28610;51.214;6.962;2022-07-06T16:43:26;22.80;36.10
42973;DHT22;28610;51.214;6.962;2022-07-06T16:46:12;23.10;35.70
42973;DHT22;28610;51.214;6.962;2022-07-06T16:48:57;23.10;35.20
42973;DHT22;28610;51.214;6.962;2022-07-06T16:51:42;22.80;36.20
42973;DHT22;28610;51.214;6.962;2022-07-06T16:54:29;23.00;35.40
42973;DHT22;28610;51.214;6.962;2022-07-06T16:57:14;23.00;36.70
42973;DHT22;28610;51.214;6.962;2022-07-06T17:00:00;22.70;36.10
42973;DHT22;28610;51.214;6.962;2022-07-06T17:02:45;22.70;36.00
42973;DHT22;28610;51.214;6.962;2022-07-06T17:05:31;22.40;36.90
42973;DHT22;28610;51.214;6.962;2022-07-06T17:08:16;22.40;37.40
42973;DHT22;28610;51.214;6.962;2022-07-06T17:11:03;22.20;37.10
42973;DHT22;28610;51.214;6.962;2022-07-06T17:13:49;22.30;37.80
42973;DHT22;28610;51.214;6.962;2022-07-06T17:16:34;22.00;37.90
42973;DHT22;28610;51.214;6.962;2022-07-06T17:19:19;22.10;38.20
42973;DHT22;28610;51.214;6.962;2022-07-06T17:22:05;22.30;38.20
42973;DHT22;28610;51.214;6.962;2022-07-06T17:24:50;22.20;38.20
42973;DHT22;28610;51.214;6.962;2022-07-06T17:27:37;21.90;38.20
42973;DHT22;28610;51.214;6.962;2022-07-06T17:30:23;21.90;38.60